sensor_id;sensor_type;location;lat;lon;timestamp;temperature;humidity
19050;DHT22;9657;45.940;12.840;2023-04-25T00:01:04;18.70;66.60
19050;DHT22;9657;45.940;12.840;2023-04-25T00:03:31;18.70;66.60
19050;DHT22;9657;45.940;12.840;2023-04-25T00:05:58;18.70;66.60
19050;DHT22;9657;45.940;12.840;2023-04-25T00:08:28;18.70;66.60
19050;DHT22;9657;45.940;12.840;2023-04-25T00:10:56;18.70;66.60
19050;DHT22;9657;45.940;12.840;2023-04-25T00:13:23;18.70;66.60
19050;DHT22;9657;45.940;12.840;2023-04-25T00:15:51;18.70;66.70
19050;DHT22;9657;45.940;12.840;2023-04-25T00:18:20;18.70;66.70
19050;DHT22;9657;45.940;12.840;2023-04-25T00:20:47;18.60;66.70
19050;DHT22;9657;45.940;12.840;2023-04-25T00:23:15;18.70;66.70
19050;DHT22;9657;45.940;12.840;2023-04-25T00:25:43;18.60;66.70
19050;DHT22;9657;45.940;12.840;2023-04-25T00:28:10;18.60;66.70
19050;DHT22;9657;45.940;12.840;2023-04-25T00:30:38;18.60;66.70
19050;DHT22;9657;45.940;12.840;2023-04-25T00:33:05;18.60;66.70
19050;DHT22;9657;45.940;12.840;2023-04-25T00:35:34;18.60;66.70
19050;DHT22;9657;45.940;12.840;2023-04-25T00:38:01;18.60;66.70
19050;DHT22;9657;45.940;12.840;2023-04-25T00:40:28;18.60;66.80
19050;DHT22;9657;45.940;12.840;2023-04-25T00:42:55;18.60;66.80
19050;DHT22;9657;45.940;12.840;2023-04-25T00:45:27;18.60;66.80
19050;DHT22;9657;45.940;12.840;2023-04-25T00:47:54;18.60;66.80
19050;DHT22;9657;45.940;12.840;2023-04-25T00:50:22;18.60;66.80
19050;DHT22;9657;45.940;12.840;2023-04-25T00:52:50;18.60;66.80
19050;DHT22;9657;45.940;12.840;2023-04-25T00:55:17;18.60;66.80
19050;DHT22;9657;45.940;12.840;2023-04-25T00:57:44;18.60;66.90
19050;DHT22;9657;45.940;12.840;2023-04-25T01:02:52;18.60;67.70
19050;DHT22;9657;45.940;12.840;2023-04-25T01:05:19;18.60;66.80
19050;DHT22;9657;45.940;12.840;2023-04-25T01:07:46;18.50;66.80
19050;DHT22;9657;45.940;12.840;2023-04-25T01:10:15;18.50;66.80
19050;DHT22;9657;45.940;12.840;2023-04-25T01:12:42;18.50;66.80
19050;DHT22;9657;45.940;12.840;2023-04-25T01:15:09;18.50;66.90
19050;DHT22;9657;45.940;12.840;2023-04-25T01:17:37;18.50;66.80
19050;DHT22;9657;45.940;12.840;2023-04-25T01:20:05;18.50;66.80
19050;DHT22;9657;45.940;12.840;2023-04-25T01:22:36;18.50;66.80
19050;DHT22;9657;45.940;12.840;2023-04-25T01:25:04;18.50;66.90
19050;DHT22;9657;45.940;12.840;2023-04-25T01:27:31;18.50;66.90
19050;DHT22;9657;45.940;12.840;2023-04-25T01:29:59;18.50;66.90
19050;DHT22;9657;45.940;12.840;2023-04-25T01:32:27;18.50;67.00
19050;DHT22;9657;45.940;12.840;2023-04-25T01:34:54;18.50;67.00
19050;DHT22;9657;45.940;12.840;2023-04-25T01:37:21;18.40;66.90
19050;DHT22;9657;45.940;12.840;2023-04-25T01:39:50;18.50;67.00
19050;DHT22;9657;45.940;12.840;2023-04-25T01:42:18;18.50;67.00
19050;DHT22;9657;45.940;12.840;2023-04-25T01:44:45;18.40;66.90
19050;DHT22;9657;45.940;12.840;2023-04-25T01:47:12;18.40;66.90
19050;DHT22;9657;45.940;12.840;2023-04-25T01:49:39;18.40;66.90
19050;DHT22;9657;45.940;12.840;2023-04-25T01:52:06;18.40;67.00
19050;DHT22;9657;45.940;12.840;2023-04-25T01:54:33;18.40;66.90
19050;DHT22;9657;45.940;12.840;2023-04-25T01:57:02;18.40;67.00
19050;DHT22;9657;45.940;12.840;2023-04-25T01:59:29;18.40;67.00
19050;DHT22;9657;45.940;12.840;2023-04-25T02:01:56;18.40;66.90
19050;DHT22;9657;45.940;12.840;2023-04-25T02:04:23;18.40;66.90
19050;DHT22;9657;45.940;12.840;2023-04-25T02:06:50;18.40;66.90
19050;DHT22;9657;45.940;12.840;2023-04-25T02:09:17;18.40;67.00
19050;DHT22;9657;45.940;12.840;2023-04-25T02:11:44;18.40;66.90
19050;DHT22;9657;45.940;12.840;2023-04-25T02:14:13;18.40;66.90
19050;DHT22;9657;45.940;12.840;2023-04-25T02:16:40;18.40;67.80
19050;DHT22;9657;45.940;12.840;2023-04-25T02:19:09;18.40;67.00
19050;DHT22;9657;45.940;12.840;2023-04-25T02:21:36;18.40;67.00
19050;DHT22;9657;45.940;12.840;2023-04-25T02:24:04;18.30;66.90
19050;DHT22;9657;45.940;12.840;2023-04-25T02:26:31;18.40;67.00
19050;DHT22;9657;45.940;12.840;2023-04-25T02:28:58;18.40;67.00
19050;DHT22;9657;45.940;12.840;2023-04-25T02:31:26;18.30;67.00
19050;DHT22;9657;45.940;12.840;2023-04-25T02:33:53;18.30;67.00
19050;DHT22;9657;45.940;12.840;2023-04-25T02:36:20;18.30;67.00
19050;DHT22;9657;45.940;12.840;2023-04-25T02:38:47;18.40;67.00
19050;DHT22;9657;45.940;12.840;2023-04-25T02:41:14;18.40;67.00
19050;DHT22;9657;45.940;12.840;2023-04-25T02:43:41;18.30;66.90
19050;DHT22;9657;45.940;12.840;2023-04-25T02:46:08;18.30;67.00
19050;DHT22;9657;45.940;12.840;2023-04-25T02:48:37;18.30;66.90
19050;DHT22;9657;45.940;12.840;2023-04-25T02:51:04;18.30;67.00
19050;DHT22;9657;45.940;12.840;2023-04-25T02:53:31;18.30;67.00
19050;DHT22;9657;45.940;12.840;2023-04-25T02:55:58;18.30;66.90
19050;DHT22;9657;45.940;12.840;2023-04-25T02:58:25;18.30;67.00
19050;DHT22;9657;45.940;12.840;2023-04-25T03:00:52;18.30;67.00
19050;DHT22;9657;45.940;12.840;2023-04-25T03:03:19;18.30;67.00
19050;DHT22;9657;45.940;12.840;2023-04-25T03:05:48;18.30;67.00
19050;DHT22;9657;45.940;12.840;2023-04-25T03:08:16;18.30;67.00
19050;DHT22;9657;45.940;12.840;2023-04-25T03:10:43;18.20;66.90
19050;DHT22;9657;45.940;12.840;2023-04-25T03:13:10;18.30;67.00
19050;DHT22;9657;45.940;12.840;2023-04-25T03:15:38;18.30;66.90
19050;DHT22;9657;45.940;12.840;2023-04-25T03:18:05;18.20;66.90
19050;DHT22;9657;45.940;12.840;2023-04-25T03:20:32;18.20;66.90
19050;DHT22;9657;45.940;12.840;2023-04-25T03:23:00;18.30;67.00
19050;DHT22;9657;45.940;12.840;2023-04-25T03:25:27;18.20;66.90
19050;DHT22;9657;45.940;12.840;2023-04-25T03:27:54;18.20;66.90
19050;DHT22;9657;45.940;12.840;2023-04-25T03:30:21;18.20;66.90
19050;DHT22;9657;45.940;12.840;2023-04-25T03:32:48;18.30;67.00
19050;DHT22;9657;45.940;12.840;2023-04-25T03:35:16;18.20;66.90
19050;DHT22;9657;45.940;12.840;2023-04-25T03:37:43;18.20;66.90
19050;DHT22;9657;45.940;12.840;2023-04-25T03:40:12;18.20;66.90
19050;DHT22;9657;45.940;12.840;2023-04-25T03:42:39;18.20;66.90
19050;DHT22;9657;45.940;12.840;2023-04-25T03:45:07;18.20;67.00
19050;DHT22;9657;45.940;12.840;2023-04-25T03:47:34;18.20;67.00
19050;DHT22;9657;45.940;12.840;2023-04-25T03:50:01;18.20;66.90
19050;DHT22;9657;45.940;12.840;2023-04-25T03:52:28;18.20;66.90
19050;DHT22;9657;45.940;12.840;2023-04-25T03:54:55;18.20;66.90
19050;DHT22;9657;45.940;12.840;2023-04-25T03:57:24;18.20;66.90
19050;DHT22;9657;45.940;12.840;2023-04-25T03:59:51;18.20;66.90
19050;DHT22;9657;45.940;12.840;2023-04-25T04:02:18;18.20;66.90
19050;DHT22;9657;45.940;12.840;2023-04-25T04:04:45;18.20;66.90
19050;DHT22;9657;45.940;12.840;2023-04-25T04:07:12;18.20;66.90
19050;DHT22;9657;45.940;12.840;2023-04-25T04:09:39;18.10;66.90
19050;DHT22;9657;45.940;12.840;2023-04-25T04:12:06;18.20;66.90
19050;DHT22;9657;45.940;12.840;2023-04-25T04:14:35;18.10;66.90
19050;DHT22;9657;45.940;12.840;2023-04-25T04:17:02;18.20;66.90
19050;DHT22;9657;45.940;12.840;2023-04-25T04:19:29;18.10;66.80
19050;DHT22;9657;45.940;12.840;2023-04-25T04:21:56;18.10;66.90
19050;DHT22;9657;45.940;12.840;2023-04-25T04:24:23;18.10;66.80
19050;DHT22;9657;45.940;12.840;2023-04-25T04:26:50;18.10;66.80
19050;DHT22;9657;45.940;12.840;2023-04-25T04:29:17;18.10;66.90
19050;DHT22;9657;45.940;12.840;2023-04-25T04:31:49;18.10;66.80
19050;DHT22;9657;45.940;12.840;2023-04-25T04:34:16;18.10;66.90
19050;DHT22;9657;45.940;12.840;2023-04-25T04:36:43;18.10;66.90
19050;DHT22;9657;45.940;12.840;2023-04-25T04:39:11;18.10;66.90
19050;DHT22;9657;45.940;12.840;2023-04-25T04:41:39;18.10;66.90
19050;DHT22;9657;45.940;12.840;2023-04-25T04:44:06;18.10;66.90
19050;DHT22;9657;45.940;12.840;2023-04-25T04:46:34;18.10;66.90
19050;DHT22;9657;45.940;12.840;2023-04-25T04:49:05;18.10;66.90
19050;DHT22;9657;45.940;12.840;2023-04-25T04:51:32;18.10;66.90
19050;DHT22;9657;45.940;12.840;2023-04-25T04:53:59;18.10;66.90
19050;DHT22;9657;45.940;12.840;2023-04-25T04:56:28;18.10;66.90
19050;DHT22;9657;45.940;12.840;2023-04-25T04:58:56;18.10;66.90
19050;DHT22;9657;45.940;12.840;2023-04-25T05:01:24;18.10;66.90
19050;DHT22;9657;45.940;12.840;2023-04-25T05:03:51;18.10;67.00
19050;DHT22;9657;45.940;12.840;2023-04-25T05:06:19;18.10;67.00
19050;DHT22;9657;45.940;12.840;2023-04-25T05:08:46;18.10;66.90
19050;DHT22;9657;45.940;12.840;2023-04-25T05:11:14;18.10;67.00
19050;DHT22;9657;45.940;12.840;2023-04-25T05:13:41;18.10;67.00
19050;DHT22;9657;45.940;12.840;2023-04-25T05:16:08;18.10;67.00
19050;DHT22;9657;45.940;12.840;2023-04-25T05:18:35;18.10;67.00
19050;DHT22;9657;45.940;12.840;2023-04-25T05:21:02;18.00;67.00
19050;DHT22;9657;45.940;12.840;2023-04-25T05:23:31;18.00;67.00
19050;DHT22;9657;45.940;12.840;2023-04-25T05:25:59;18.10;67.00
19050;DHT22;9657;45.940;12.840;2023-04-25T05:28:26;18.00;67.00
19050;DHT22;9657;45.940;12.840;2023-04-25T05:30:53;18.00;67.00
19050;DHT22;9657;45.940;12.840;2023-04-25T05:33:20;18.10;67.10
19050;DHT22;9657;45.940;12.840;2023-04-25T05:35:47;18.00;67.10
19050;DHT22;9657;45.940;12.840;2023-04-25T05:38:14;18.10;67.10
19050;DHT22;9657;45.940;12.840;2023-04-25T05:40:43;18.10;67.20
19050;DHT22;9657;45.940;12.840;2023-04-25T05:43:10;18.00;67.10
19050;DHT22;9657;45.940;12.840;2023-04-25T05:45:37;18.00;67.10
19050;DHT22;9657;45.940;12.840;2023-04-25T05:48:05;18.00;67.10
19050;DHT22;9657;45.940;12.840;2023-04-25T05:50:32;18.10;67.30
19050;DHT22;9657;45.940;12.840;2023-04-25T05:52:59;18.10;67.30
19050;DHT22;9657;45.940;12.840;2023-04-25T05:55:26;18.00;67.20
19050;DHT22;9657;45.940;12.840;2023-04-25T05:57:54;18.00;67.10
19050;DHT22;9657;45.940;12.840;2023-04-25T06:00:21;18.10;67.30
19050;DHT22;9657;45.940;12.840;2023-04-25T06:02:49;18.00;67.20
19050;DHT22;9657;45.940;12.840;2023-04-25T06:05:16;18.00;67.20
19050;DHT22;9657;45.940;12.840;2023-04-25T06:07:43;18.00;67.30
19050;DHT22;9657;45.940;12.840;2023-04-25T06:10:10;18.00;67.30
19050;DHT22;9657;45.940;12.840;2023-04-25T06:12:37;18.00;67.30
19050;DHT22;9657;45.940;12.840;2023-04-25T06:15:07;18.00;67.40
19050;DHT22;9657;45.940;12.840;2023-04-25T06:17:34;18.00;67.30
19050;DHT22;9657;45.940;12.840;2023-04-25T06:20:01;18.00;67.40
19050;DHT22;9657;45.940;12.840;2023-04-25T06:22:29;18.00;67.40
19050;DHT22;9657;45.940;12.840;2023-04-25T06:24:56;18.00;68.20
19050;DHT22;9657;45.940;12.840;2023-04-25T06:27:24;18.00;67.40
19050;DHT22;9657;45.940;12.840;2023-04-25T06:29:51;18.00;67.50
19050;DHT22;9657;45.940;12.840;2023-04-25T06:32:20;18.00;67.40
19050;DHT22;9657;45.940;12.840;2023-04-25T06:34:47;18.00;67.40
19050;DHT22;9657;45.940;12.840;2023-04-25T06:37:14;18.00;67.40
19050;DHT22;9657;45.940;12.840;2023-04-25T06:39:41;18.00;67.50
19050;DHT22;9657;45.940;12.840;2023-04-25T06:42:08;18.00;67.60
19050;DHT22;9657;45.940;12.840;2023-04-25T06:44:35;18.00;67.70
19050;DHT22;9657;45.940;12.840;2023-04-25T06:47:02;18.00;67.60
19050;DHT22;9657;45.940;12.840;2023-04-25T06:49:31;18.00;67.20
19050;DHT22;9657;45.940;12.840;2023-04-25T06:51:58;18.00;67.00
19050;DHT22;9657;45.940;12.840;2023-04-25T06:54:25;18.00;67.00
19050;DHT22;9657;45.940;12.840;2023-04-25T06:56:53;18.10;66.90
19050;DHT22;9657;45.940;12.840;2023-04-25T06:59:20;18.00;67.00
19050;DHT22;9657;45.940;12.840;2023-04-25T07:01:47;18.00;66.90
19050;DHT22;9657;45.940;12.840;2023-04-25T07:04:14;18.00;67.10
19050;DHT22;9657;45.940;12.840;2023-04-25T07:06:42;18.10;67.10
19050;DHT22;9657;45.940;12.840;2023-04-25T07:09:10;18.10;67.00
19050;DHT22;9657;45.940;12.840;2023-04-25T07:11:37;18.10;66.80
19050;DHT22;9657;45.940;12.840;2023-04-25T07:14:04;18.10;66.80
19050;DHT22;9657;45.940;12.840;2023-04-25T07:16:31;18.10;66.90
19050;DHT22;9657;45.940;12.840;2023-04-25T07:18:58;18.10;66.90
19050;DHT22;9657;45.940;12.840;2023-04-25T07:21:26;18.10;66.80
19050;DHT22;9657;45.940;12.840;2023-04-25T07:23:54;18.10;66.80
19050;DHT22;9657;45.940;12.840;2023-04-25T07:26:21;18.10;66.60
19050;DHT22;9657;45.940;12.840;2023-04-25T07:28:48;18.10;66.50
19050;DHT22;9657;45.940;12.840;2023-04-25T07:31:17;18.10;66.80
19050;DHT22;9657;45.940;12.840;2023-04-25T07:33:44;18.10;66.50
19050;DHT22;9657;45.940;12.840;2023-04-25T07:36:11;18.10;66.50
19050;DHT22;9657;45.940;12.840;2023-04-25T07:38:38;18.10;66.50
19050;DHT22;9657;45.940;12.840;2023-04-25T07:41:07;18.10;66.30
19050;DHT22;9657;45.940;12.840;2023-04-25T07:43:34;18.10;66.50
19050;DHT22;9657;45.940;12.840;2023-04-25T07:46:01;18.20;66.30
19050;DHT22;9657;45.940;12.840;2023-04-25T07:48:28;18.20;66.40
19050;DHT22;9657;45.940;12.840;2023-04-25T07:50:55;18.20;66.30
19050;DHT22;9657;45.940;12.840;2023-04-25T07:53:22;18.20;66.20
19050;DHT22;9657;45.940;12.840;2023-04-25T07:55:50;18.20;66.30
19050;DHT22;9657;45.940;12.840;2023-04-25T07:58:19;18.20;66.20
19050;DHT22;9657;45.940;12.840;2023-04-25T08:00:47;18.20;66.20
19050;DHT22;9657;45.940;12.840;2023-04-25T08:03:14;18.20;66.10
19050;DHT22;9657;45.940;12.840;2023-04-25T08:05:41;18.20;66.20
19050;DHT22;9657;45.940;12.840;2023-04-25T08:08:08;18.20;66.30
19050;DHT22;9657;45.940;12.840;2023-04-25T08:10:36;18.30;66.20
19050;DHT22;9657;45.940;12.840;2023-04-25T08:13:03;18.30;66.10
19050;DHT22;9657;45.940;12.840;2023-04-25T08:15:31;18.30;66.10
19050;DHT22;9657;45.940;12.840;2023-04-25T08:17:58;18.30;66.10
19050;DHT22;9657;45.940;12.840;2023-04-25T08:20:25;18.30;66.00
19050;DHT22;9657;45.940;12.840;2023-04-25T08:22:52;18.30;66.10
19050;DHT22;9657;45.940;12.840;2023-04-25T08:25:19;18.30;66.10
19050;DHT22;9657;45.940;12.840;2023-04-25T08:27:47;18.30;66.10
19050;DHT22;9657;45.940;12.840;2023-04-25T08:30:14;18.30;66.00
19050;DHT22;9657;45.940;12.840;2023-04-25T08:32:42;18.30;65.90
19050;DHT22;9657;45.940;12.840;2023-04-25T08:35:09;18.40;66.00
19050;DHT22;9657;45.940;12.840;2023-04-25T08:37:36;18.30;65.80
19050;DHT22;9657;45.940;12.840;2023-04-25T08:40:05;18.40;65.90
19050;DHT22;9657;45.940;12.840;2023-04-25T08:42:34;18.40;65.80
19050;DHT22;9657;45.940;12.840;2023-04-25T08:45:02;18.40;65.80
19050;DHT22;9657;45.940;12.840;2023-04-25T08:47:30;18.40;65.80
19050;DHT22;9657;45.940;12.840;2023-04-25T08:50:02;18.40;65.90
19050;DHT22;9657;45.940;12.840;2023-04-25T08:52:36;18.40;65.90
19050;DHT22;9657;45.940;12.840;2023-04-25T08:55:06;18.40;66.00
19050;DHT22;9657;45.940;12.840;2023-04-25T08:57:37;18.40;65.80
19050;DHT22;9657;45.940;12.840;2023-04-25T09:00:05;18.40;65.80
19050;DHT22;9657;45.940;12.840;2023-04-25T09:02:33;18.40;66.20
19050;DHT22;9657;45.940;12.840;2023-04-25T09:05:02;18.40;66.10
19050;DHT22;9657;45.940;12.840;2023-04-25T09:07:30;18.40;66.10
19050;DHT22;9657;45.940;12.840;2023-04-25T09:09:57;18.40;66.20
19050;DHT22;9657;45.940;12.840;2023-04-25T09:12:26;18.40;66.20
19050;DHT22;9657;45.940;12.840;2023-04-25T09:15:05;18.40;66.20
19050;DHT22;9657;45.940;12.840;2023-04-25T09:17:32;18.40;66.10
19050;DHT22;9657;45.940;12.840;2023-04-25T09:20:08;18.40;66.20
19050;DHT22;9657;45.940;12.840;2023-04-25T09:22:36;18.40;66.30
19050;DHT22;9657;45.940;12.840;2023-04-25T09:25:08;18.40;66.10
19050;DHT22;9657;45.940;12.840;2023-04-25T09:27:35;18.40;66.10
19050;DHT22;9657;45.940;12.840;2023-04-25T09:30:03;18.40;66.10
19050;DHT22;9657;45.940;12.840;2023-04-25T09:32:30;18.50;66.10
19050;DHT22;9657;45.940;12.840;2023-04-25T09:34:57;18.40;66.00
19050;DHT22;9657;45.940;12.840;2023-04-25T09:37:27;18.40;66.00
19050;DHT22;9657;45.940;12.840;2023-04-25T09:39:56;18.40;66.80
19050;DHT22;9657;45.940;12.840;2023-04-25T09:42:25;18.40;65.90
19050;DHT22;9657;45.940;12.840;2023-04-25T09:44:55;18.40;66.00
19050;DHT22;9657;45.940;12.840;2023-04-25T09:47:23;18.40;65.90
19050;DHT22;9657;45.940;12.840;2023-04-25T09:49:51;18.40;65.90
19050;DHT22;9657;45.940;12.840;2023-04-25T09:52:20;18.40;65.90
19050;DHT22;9657;45.940;12.840;2023-04-25T09:54:49;18.40;65.90
19050;DHT22;9657;45.940;12.840;2023-04-25T09:57:18;18.40;65.90
19050;DHT22;9657;45.940;12.840;2023-04-25T09:59:46;18.40;65.90
19050;DHT22;9657;45.940;12.840;2023-04-25T10:02:15;18.40;65.90
19050;DHT22;9657;45.940;12.840;2023-04-25T10:04:45;18.30;65.90
19050;DHT22;9657;45.940;12.840;2023-04-25T10:07:14;18.30;65.90
19050;DHT22;9657;45.940;12.840;2023-04-25T10:09:42;18.30;65.90
19050;DHT22;9657;45.940;12.840;2023-04-25T10:12:12;18.30;65.80
19050;DHT22;9657;45.940;12.840;2023-04-25T10:14:39;18.30;65.90
19050;DHT22;9657;45.940;12.840;2023-04-25T10:17:08;18.30;65.90
19050;DHT22;9657;45.940;12.840;2023-04-25T10:19:37;18.30;65.90
19050;DHT22;9657;45.940;12.840;2023-04-25T10:22:08;18.30;65.90
19050;DHT22;9657;45.940;12.840;2023-04-25T10:24:38;18.30;65.90
19050;DHT22;9657;45.940;12.840;2023-04-25T10:27:06;18.30;65.90
19050;DHT22;9657;45.940;12.840;2023-04-25T10:29:35;18.30;65.90
19050;DHT22;9657;45.940;12.840;2023-04-25T10:32:02;18.20;65.80
19050;DHT22;9657;45.940;12.840;2023-04-25T10:34:40;18.20;65.80
19050;DHT22;9657;45.940;12.840;2023-04-25T10:37:10;18.20;65.80
19050;DHT22;9657;45.940;12.840;2023-04-25T10:39:39;18.30;65.90
19050;DHT22;9657;45.940;12.840;2023-04-25T10:42:07;18.20;65.80
19050;DHT22;9657;45.940;12.840;2023-04-25T10:44:37;18.20;65.80
19050;DHT22;9657;45.940;12.840;2023-04-25T10:47:06;18.30;65.90
19050;DHT22;9657;45.940;12.840;2023-04-25T10:49:36;18.20;65.90
19050;DHT22;9657;45.940;12.840;2023-04-25T10:52:14;18.20;65.90
19050;DHT22;9657;45.940;12.840;2023-04-25T10:54:42;18.20;65.90
19050;DHT22;9657;45.940;12.840;2023-04-25T11:00:17;18.20;65.90
19050;DHT22;9657;45.940;12.840;2023-04-25T11:02:46;18.20;65.90
19050;DHT22;9657;45.940;12.840;2023-04-25T11:05:23;18.20;65.90
19050;DHT22;9657;45.940;12.840;2023-04-25T11:07:54;18.20;65.90
19050;DHT22;9657;45.940;12.840;2023-04-25T11:10:25;18.20;65.90
19050;DHT22;9657;45.940;12.840;2023-04-25T11:12:53;18.20;66.00
19050;DHT22;9657;45.940;12.840;2023-04-25T11:15:21;18.20;65.90
19050;DHT22;9657;45.940;12.840;2023-04-25T11:17:50;18.20;66.00
19050;DHT22;9657;45.940;12.840;2023-04-25T11:20:17;18.10;65.90
19050;DHT22;9657;45.940;12.840;2023-04-25T11:22:45;18.10;65.90
19050;DHT22;9657;45.940;12.840;2023-04-25T11:25:13;18.10;66.00
19050;DHT22;9657;45.940;12.840;2023-04-25T11:27:50;18.10;65.90
19050;DHT22;9657;45.940;12.840;2023-04-25T11:30:18;18.20;66.00
19050;DHT22;9657;45.940;12.840;2023-04-25T11:32:47;18.10;66.00
19050;DHT22;9657;45.940;12.840;2023-04-25T11:35:14;18.10;66.00
19050;DHT22;9657;45.940;12.840;2023-04-25T11:37:42;18.10;66.00
19050;DHT22;9657;45.940;12.840;2023-04-25T11:40:12;18.10;66.00
19050;DHT22;9657;45.940;12.840;2023-04-25T11:42:43;18.10;66.00
19050;DHT22;9657;45.940;12.840;2023-04-25T11:45:10;18.10;66.80
19050;DHT22;9657;45.940;12.840;2023-04-25T11:47:37;18.10;66.00
19050;DHT22;9657;45.940;12.840;2023-04-25T11:50:07;18.10;66.00
19050;DHT22;9657;45.940;12.840;2023-04-25T11:52:38;18.10;66.00
19050;DHT22;9657;45.940;12.840;2023-04-25T11:55:08;18.10;66.00
19050;DHT22;9657;45.940;12.840;2023-04-25T11:57:36;18.10;66.00
19050;DHT22;9657;45.940;12.840;2023-04-25T12:00:09;18.10;66.00
19050;DHT22;9657;45.940;12.840;2023-04-25T12:02:40;18.10;66.00
19050;DHT22;9657;45.940;12.840;2023-04-25T12:05:10;18.10;66.10
19050;DHT22;9657;45.940;12.840;2023-04-25T12:07:37;18.10;66.10
19050;DHT22;9657;45.940;12.840;2023-04-25T12:10:05;18.10;66.20
19050;DHT22;9657;45.940;12.840;2023-04-25T12:12:34;18.10;66.30
19050;DHT22;9657;45.940;12.840;2023-04-25T12:15:11;18.10;66.30
19050;DHT22;9657;45.940;12.840;2023-04-25T12:17:41;18.10;66.30
19050;DHT22;9657;45.940;12.840;2023-04-25T12:20:12;18.10;66.30
19050;DHT22;9657;45.940;12.840;2023-04-25T12:22:41;18.10;66.30
19050;DHT22;9657;45.940;12.840;2023-04-25T12:25:10;18.10;66.40
19050;DHT22;9657;45.940;12.840;2023-04-25T12:27:38;18.10;66.40
19050;DHT22;9657;45.940;12.840;2023-04-25T12:30:09;18.10;66.40
19050;DHT22;9657;45.940;12.840;2023-04-25T12:32:37;18.10;66.40
19050;DHT22;9657;45.940;12.840;2023-04-25T12:37:33;18.10;66.40
19050;DHT22;9657;45.940;12.840;2023-04-25T12:40:00;18.10;66.40
19050;DHT22;9657;45.940;12.840;2023-04-25T12:42:29;18.10;66.40
19050;DHT22;9657;45.940;12.840;2023-04-25T12:44:56;18.10;66.30
19050;DHT22;9657;45.940;12.840;2023-04-25T12:47:23;18.10;66.30
19050;DHT22;9657;45.940;12.840;2023-04-25T12:49:50;18.10;66.30
19050;DHT22;9657;45.940;12.840;2023-04-25T12:52:17;18.10;66.30
19050;DHT22;9657;45.940;12.840;2023-04-25T12:54:46;18.10;66.30
19050;DHT22;9657;45.940;12.840;2023-04-25T12:57:13;18.20;66.30
19050;DHT22;9657;45.940;12.840;2023-04-25T12:59:40;18.20;66.30
19050;DHT22;9657;45.940;12.840;2023-04-25T13:02:07;18.10;66.30
19050;DHT22;9657;45.940;12.840;2023-04-25T13:04:34;18.20;66.30
19050;DHT22;9657;45.940;12.840;2023-04-25T13:07:01;18.20;66.30
19050;DHT22;9657;45.940;12.840;2023-04-25T13:09:29;18.20;66.30
19050;DHT22;9657;45.940;12.840;2023-04-25T13:11:57;18.20;66.20
19050;DHT22;9657;45.940;12.840;2023-04-25T13:14:24;18.20;66.30
19050;DHT22;9657;45.940;12.840;2023-04-25T13:16:51;18.20;66.20
19050;DHT22;9657;45.940;12.840;2023-04-25T13:19:18;18.20;66.20
19050;DHT22;9657;45.940;12.840;2023-04-25T13:21:45;18.20;66.30
19050;DHT22;9657;45.940;12.840;2023-04-25T13:24:12;18.20;66.30
19050;DHT22;9657;45.940;12.840;2023-04-25T13:26:39;18.20;66.20
19050;DHT22;9657;45.940;12.840;2023-04-25T13:29:08;18.20;66.30
19050;DHT22;9657;45.940;12.840;2023-04-25T13:31:35;18.20;66.30
19050;DHT22;9657;45.940;12.840;2023-04-25T13:34:02;18.20;66.30
19050;DHT22;9657;45.940;12.840;2023-04-25T13:36:29;18.20;66.20
19050;DHT22;9657;45.940;12.840;2023-04-25T13:38:57;18.20;66.30
19050;DHT22;9657;45.940;12.840;2023-04-25T13:41:24;18.20;66.10
19050;DHT22;9657;45.940;12.840;2023-04-25T13:43:51;18.20;66.10
19050;DHT22;9657;45.940;12.840;2023-04-25T13:46:20;18.20;66.10
19050;DHT22;9657;45.940;12.840;2023-04-25T13:48:47;18.20;66.20
19050;DHT22;9657;45.940;12.840;2023-04-25T13:51:16;18.20;66.30
19050;DHT22;9657;45.940;12.840;2023-04-25T13:53:43;18.20;66.30
19050;DHT22;9657;45.940;12.840;2023-04-25T13:56:11;18.20;66.30
19050;DHT22;9657;45.940;12.840;2023-04-25T13:58:38;18.30;66.30
19050;DHT22;9657;45.940;12.840;2023-04-25T14:01:05;18.20;66.10
19050;DHT22;9657;45.940;12.840;2023-04-25T14:03:34;18.30;66.10
19050;DHT22;9657;45.940;12.840;2023-04-25T14:06:01;18.30;66.10
19050;DHT22;9657;45.940;12.840;2023-04-25T14:08:28;18.30;66.20
19050;DHT22;9657;45.940;12.840;2023-04-25T14:10:55;18.30;66.20
19050;DHT22;9657;45.940;12.840;2023-04-25T14:13:22;18.30;66.30
19050;DHT22;9657;45.940;12.840;2023-04-25T14:15:50;18.30;66.40
19050;DHT22;9657;45.940;12.840;2023-04-25T14:18:17;18.30;66.50
19050;DHT22;9657;45.940;12.840;2023-04-25T14:20:46;18.30;66.40
19050;DHT22;9657;45.940;12.840;2023-04-25T14:23:13;18.30;66.80
19050;DHT22;9657;45.940;12.840;2023-04-25T14:25:43;18.30;66.50
19050;DHT22;9657;45.940;12.840;2023-04-25T14:28:10;18.30;66.50
19050;DHT22;9657;45.940;12.840;2023-04-25T14:30:37;18.40;66.60
19050;DHT22;9657;45.940;12.840;2023-04-25T14:33:04;18.40;66.70
19050;DHT22;9657;45.940;12.840;2023-04-25T14:35:31;18.40;66.80
19050;DHT22;9657;45.940;12.840;2023-04-25T14:38:00;18.40;66.70
19050;DHT22;9657;45.940;12.840;2023-04-25T14:40:27;18.40;66.70
19050;DHT22;9657;45.940;12.840;2023-04-25T14:42:54;18.40;66.60
19050;DHT22;9657;45.940;12.840;2023-04-25T14:45:21;18.40;66.60
19050;DHT22;9657;45.940;12.840;2023-04-25T14:47:48;18.40;66.80
19050;DHT22;9657;45.940;12.840;2023-04-25T14:50:17;18.40;66.80
19050;DHT22;9657;45.940;12.840;2023-04-25T14:52:44;18.40;66.90
19050;DHT22;9657;45.940;12.840;2023-04-25T14:55:12;18.40;66.90
19050;DHT22;9657;45.940;12.840;2023-04-25T14:57:40;18.40;66.90
19050;DHT22;9657;45.940;12.840;2023-04-25T15:00:08;18.40;66.90
19050;DHT22;9657;45.940;12.840;2023-04-25T15:02:35;18.40;66.90
19050;DHT22;9657;45.940;12.840;2023-04-25T15:05:03;18.40;66.90
19050;DHT22;9657;45.940;12.840;2023-04-25T15:07:30;18.40;66.90
19050;DHT22;9657;45.940;12.840;2023-04-25T15:09:57;18.40;66.80
19050;DHT22;9657;45.940;12.840;2023-04-25T15:12:26;18.40;66.80
19050;DHT22;9657;45.940;12.840;2023-04-25T15:14:53;18.40;66.80
19050;DHT22;9657;45.940;12.840;2023-04-25T15:17:21;18.40;66.80
19050;DHT22;9657;45.940;12.840;2023-04-25T15:19:48;18.40;66.90
19050;DHT22;9657;45.940;12.840;2023-04-25T15:22:15;18.40;66.80
19050;DHT22;9657;45.940;12.840;2023-04-25T15:24:42;18.40;66.80
19050;DHT22;9657;45.940;12.840;2023-04-25T15:27:09;18.40;66.80
19050;DHT22;9657;45.940;12.840;2023-04-25T15:29:38;18.40;66.80
19050;DHT22;9657;45.940;12.840;2023-04-25T15:32:05;18.40;66.80
19050;DHT22;9657;45.940;12.840;2023-04-25T15:34:32;18.40;66.80
19050;DHT22;9657;45.940;12.840;2023-04-25T15:36:59;18.40;66.80
19050;DHT22;9657;45.940;12.840;2023-04-25T15:39:26;18.40;66.80
19050;DHT22;9657;45.940;12.840;2023-04-25T15:41:53;18.40;66.80